
Distance (Route):
Temperature : 0°C
Humidity : 0%
Pressure : 0hPa| Receiver | Date | Latitude | Longitude | Direction | Speed | Altitude | Climb | Temperature | Humidity | Pressure | Voltage | Killtimer | Uptime | BKT | XDATA |
|---|---|---|---|---|---|---|---|---|---|---|---|---|---|---|---|
| DB0UT-7 | 2026-09-04 11:27:20 | 47.36587 | 4.18761 | 65° | 62km/h | 5027m | -2.3m/s | 0°C | 0% | 0hPa | 4.5V | 00:00:00 | 00:00:00 | 00:00:00 | |
| DB0UT-7 | 2026-09-04 11:25:29 | 47.35805 | 4.16486 | 62° | 60km/h | 5331m | -2.2m/s | 0°C | 0% | 0hPa | 4.5V | 00:00:00 | 00:00:00 | 00:00:00 | |
| DB0UT-7 | 2026-09-04 11:22:06 | 47.34543 | 4.12495 | 69° | 60km/h | 5866m | -3.1m/s | 0°C | 0% | 0hPa | 4.5V | 00:00:00 | 00:00:00 | 00:00:00 | |
| DB0UT-7 | 2026-09-04 11:20:25 | 47.34073 | 4.10397 | 76° | 64km/h | 6169m | -2.9m/s | 0°C | 0% | 0hPa | 4.5V | 00:00:00 | 00:00:00 | 00:00:00 | |
| DB0UT-7 | 2026-09-04 11:19:55 | 47.33969 | 4.09701 | 79° | 64km/h | 6258m | -2.8m/s | 0°C | 0% | 0hPa | 4.5V | 00:00:00 | 00:00:00 | 00:00:00 | |
| DB0UT-7 | 2026-09-04 11:18:45 | 47.33738 | 4.08066 | 79° | 62km/h | 6461m | -2.3m/s | 0°C | 0% | 0hPa | 4.5V | 00:00:00 | 00:00:00 | 00:00:00 | |
| DB0UT-7 | 2026-09-04 11:18:13 | 47.33623 | 4.07344 | 76° | 60km/h | 6527m | -2.3m/s | 0°C | 0% | 0hPa | 4.5V | 00:00:00 | 00:00:00 | 00:00:00 | |
| DB0UT-7 | 2026-09-04 11:17:05 | 47.33367 | 4.05886 | 75° | 57km/h | 6675m | -1.9m/s | 0°C | 0% | 0hPa | 4.5V | 00:00:00 | 00:00:00 | 00:00:00 | |
| DB0UT-7 | 2026-09-04 11:16:34 | 47.33260 | 4.05258 | 76° | 58km/h | 6742m | -1.9m/s | 0°C | 0% | 0hPa | 4.5V | 00:00:00 | 00:00:00 | 00:00:00 | |
| DB0ND-19 | 2026-09-04 11:16:06 | 47.33115 | 4.04448 | 75° | 57km/h | 6820m | -1.8m/s | -15.4°C | -1.0% | -1.0hPa | 4.5V | 00:00:00 | 00:00:00 | 00:00:00 | |
| DB0UT-7 | 2026-09-04 11:15:17 | 47.32983 | 4.03669 | 76° | 60km/h | 6896m | -2.0m/s | 0°C | 0% | 0hPa | 4.5V | 00:00:00 | 00:00:00 | 00:00:00 | |
| DB0ND-19 | 2026-09-04 11:15:04 | 47.32928 | 4.03347 | 75° | 58km/h | 6924m | -2.0m/s | -16.1°C | -1.0% | -1.0hPa | 4.5V | 00:00:00 | 00:00:00 | 00:00:00 | |
| DB0UT-7 | 2026-09-04 11:14:47 | 47.32873 | 4.03019 | 77° | 64km/h | 6958m | -1.9m/s | 0°C | 0% | 0hPa | 4.5V | 00:00:00 | 00:00:00 | 00:00:00 | |
| DB0ND-19 | 2026-09-04 11:14:33 | 47.32822 | 4.02683 | 78° | 60km/h | 6989m | -2.0m/s | -16.5°C | -1.0% | -1.0hPa | 4.5V | 00:00:00 | 00:00:00 | 00:00:00 | |
| DB0UT-7 | 2026-09-04 11:13:47 | 47.32682 | 4.01629 | 82° | 66km/h | 7091m | -2.3m/s | 0°C | 0% | 0hPa | 4.5V | 00:00:00 | 00:00:00 | 00:00:00 | |
| DB0UT-7 | 2026-09-04 11:13:17 | 47.32612 | 4.00893 | 83° | 69km/h | 7166m | -2.4m/s | 0°C | 0% | 0hPa | 4.5V | 00:00:00 | 00:00:00 | 00:00:00 | |
| DB0ND-19 | 2026-09-04 11:12:59 | 47.32571 | 4.00443 | 82° | 66km/h | 7211m | -2.5m/s | -17.6°C | -1.0% | -1.0hPa | 4.5V | 00:00:00 | 00:00:00 | 00:00:00 | |
| DB0ND-19 | 2026-09-04 11:12:28 | 47.32493 | 3.99636 | 83° | 69km/h | 7297m | -2.5m/s | -18.3°C | -1.0% | -1.0hPa | 4.5V | 00:00:00 | 00:00:00 | 00:00:00 | |
| DB0UT-7 | 2026-09-04 11:12:01 | 47.32439 | 3.98961 | 83° | 69km/h | 7374m | -2.9m/s | 0°C | 0% | 0hPa | 4.5V | 00:00:00 | 00:00:00 | 00:00:00 | |
| DB0ND-19 | 2026-09-04 11:11:57 | 47.32427 | 3.98833 | 82° | 69km/h | 7386m | -3.0m/s | -18.8°C | -1.0% | -1.0hPa | 4.5V | 00:00:00 | 00:00:00 | 00:00:00 | |
| DB0ND-19 | 2026-09-04 11:11:26 | 47.32342 | 3.98045 | 80° | 68km/h | 7480m | -3.1m/s | -19.4°C | -1.0% | -1.0hPa | 4.5V | 00:00:00 | 00:00:00 | 00:00:00 | |
| DB0ND-19 | 2026-09-04 11:10:55 | 47.32257 | 3.97230 | 80° | 71km/h | 7578m | -3.3m/s | -20.1°C | -1.0% | -1.0hPa | 4.5V | 00:00:00 | 00:00:00 | 00:00:00 | |
| DB0UT-7 | 2026-09-04 11:10:11 | 47.32141 | 3.96131 | 81° | 69km/h | 7718m | -3.3m/s | 0°C | 0% | 0hPa | 4.5V | 00:00:00 | 00:00:00 | 00:00:00 | |
| DB0UT-7 | 2026-09-04 11:09:40 | 47.32043 | 3.95333 | 79° | 75km/h | 7817m | -3.3m/s | 0°C | 0% | 0hPa | 4.5V | 00:00:00 | 00:00:00 | 00:00:00 | |
| DB0ND-19 | 2026-09-04 11:09:22 | 47.31976 | 3.94826 | 79° | 73km/h | 7874m | -3.2m/s | -22.8°C | -1.0% | -1.0hPa | 4.5V | 00:00:00 | 00:00:00 | 00:00:00 | |
| DB0ND-19 | 2026-09-04 11:08:51 | 47.31882 | 3.93987 | 81° | 73km/h | 7971m | -3.1m/s | -23.3°C | -1.0% | -1.0hPa | 4.5V | 00:00:00 | 00:00:00 | 00:00:00 | |
| DB0UT-7 | 2026-09-04 11:08:26 | 47.31812 | 3.93319 | 83° | 78km/h | 8047m | -3.0m/s | 0°C | 0% | 0hPa | 4.5V | 00:00:00 | 00:00:00 | 00:00:00 | |
| DB0ND-19 | 2026-09-04 11:08:20 | 47.31793 | 3.93120 | 81° | 78km/h | 8066m | -3.1m/s | -24.1°C | -1.0% | -1.0hPa | 4.5V | 00:00:00 | 00:00:00 | 00:00:00 | |
| DB0UT-7 | 2026-09-04 11:07:56 | 47.31735 | 3.92442 | 83° | 208km/h | 8138m | -3.0m/s | 0°C | 0% | 0hPa | 4.5V | 00:00:00 | 00:00:00 | 00:00:00 | |
| DB0ND-19 | 2026-09-04 11:07:49 | 47.31713 | 3.92167 | 82° | 82km/h | 8162m | -3.0m/s | -24.7°C | -1.0% | -1.0hPa | 4.5V | 00:00:00 | 00:00:00 | 00:00:00 | |
| DB0UT-7 | 2026-09-04 11:07:12 | 47.31614 | 3.91093 | 83° | 82km/h | 8269m | -2.9m/s | 0°C | 0% | 0hPa | 4.5V | 00:00:00 | 00:00:00 | 00:00:00 | |
| DB0UT-7 | 2026-09-04 11:06:42 | 47.31519 | 3.90184 | 81° | 80km/h | 8358m | -3.0m/s | 0°C | 0% | 0hPa | 4.5V | 00:00:00 | 00:00:00 | 00:00:00 | |
| DB0UT-7 | 2026-09-04 11:06:12 | 47.31411 | 3.89296 | 80° | 78km/h | 8449m | -3.0m/s | 0°C | 0% | 0hPa | 4.5V | 00:00:00 | 00:00:00 | 00:00:00 | |
| DB0UT-7 | 2026-09-04 11:05:40 | 47.31288 | 3.88373 | 78° | 78km/h | 8548m | -3.3m/s | 0°C | 0% | 0hPa | 4.5V | 00:00:00 | 00:00:00 | 00:00:00 | |
| DB0UT-7 | 2026-09-04 11:05:11 | 47.31172 | 3.87507 | 80° | 77km/h | 8640m | -3.1m/s | 0°C | 0% | 0hPa | 4.5V | 00:00:00 | 00:00:00 | 00:00:00 | |
| DB0UT-7 | 2026-09-04 11:04:40 | 47.31063 | 3.86676 | 79° | 80km/h | 8740m | -3.4m/s | 0°C | 0% | 0hPa | 4.5V | 00:00:00 | 00:00:00 | 00:00:00 | |
| DB0UT-7 | 2026-09-04 11:04:10 | 47.30944 | 3.85802 | 80° | 80km/h | 8836m | -3.2m/s | 0°C | 0% | 0hPa | 4.5V | 00:00:00 | 00:00:00 | 00:00:00 | |
| DB0UT-7 | 2026-09-04 11:03:40 | 47.30824 | 3.84921 | 78° | 78km/h | 8944m | -3.4m/s | 0°C | 0% | 0hPa | 4.5V | 00:00:00 | 00:00:00 | 00:00:00 | |
| DB0UT-7 | 2026-09-04 11:03:10 | 47.30704 | 3.84063 | 79° | 78km/h | 9042m | -3.6m/s | 0°C | 0% | 0hPa | 4.5V | 00:00:00 | 00:00:00 | 00:00:00 | |
| DB0UT-7 | 2026-09-04 11:02:40 | 47.30592 | 3.83210 | 80° | 78km/h | 9146m | -3.5m/s | 0°C | 0% | 0hPa | 4.5V | 00:00:00 | 00:00:00 | 00:00:00 | |
| DB0ND-19 | 2026-09-04 11:02:39 | 47.30581 | 3.83124 | 79° | 77km/h | 9153m | -3.5m/s | -31.8°C | -1.0% | -1.0hPa | 4.5V | 00:00:00 | 00:00:00 | 00:00:00 | |
| DB0ND-19 | 2026-09-04 11:02:08 | 47.30462 | 3.82264 | 77° | 77km/h | 9257m | -3.3m/s | -32.5°C | -1.0% | -1.0hPa | 4.5V | 00:00:00 | 00:00:00 | 00:00:00 | |
| DB0UT-7 | 2026-09-04 11:01:59 | 47.30426 | 3.82034 | 79° | 77km/h | 9292m | -3.6m/s | 0°C | 0% | 0hPa | 4.5V | 00:00:00 | 00:00:00 | 00:00:00 | |
| DB0UT-7 | 2026-09-04 11:01:29 | 47.30296 | 3.81189 | 77° | 75km/h | 9394m | -3.4m/s | 0°C | 0% | 0hPa | 4.5V | 00:00:00 | 00:00:00 | 00:00:00 | |
| DB0ND-19 | 2026-09-04 11:01:06 | 47.30184 | 3.80537 | 77° | 71km/h | 9474m | -3.5m/s | -34.0°C | -1.0% | -1.0hPa | 4.5V | 00:00:00 | 00:00:00 | 00:00:00 | |
| DB0UT-7 | 2026-09-04 11:00:59 | 47.30154 | 3.80380 | 74° | 75km/h | 9513m | -3.3m/s | 0°C | 0% | 0hPa | 4.5V | 00:00:00 | 00:00:00 | 00:00:00 | |
| DB0UT-7 | 2026-09-04 11:00:26 | 47.29988 | 3.79485 | 76° | 78km/h | 9613m | -3.3m/s | 0°C | 0% | 0hPa | 4.5V | 00:00:00 | 00:00:00 | 00:00:00 | |
| DB0ND-19 | 2026-09-04 11:00:04 | 47.29856 | 3.78813 | 73° | 80km/h | 9691m | -3.4m/s | -35.7°C | -1.0% | -1.0hPa | 4.5V | 00:00:00 | 00:00:00 | 00:00:00 | |
| DB0UT-7 | 2026-09-04 10:59:56 | 47.29823 | 3.78642 | 73° | 82km/h | 9715m | -3.3m/s | 0°C | 0% | 0hPa | 4.5V | 00:00:00 | 00:00:00 | 00:00:00 | |
| DB0UT-7 | 2026-09-04 10:59:26 | 47.29650 | 3.77765 | 75° | 80km/h | 9816m | -3.5m/s | 0°C | 0% | 0hPa | 4.5V | 00:00:00 | 00:00:00 | 00:00:00 | |
| DB0ND-19 | 2026-09-04 10:59:02 | 47.29519 | 3.77050 | 72° | 77km/h | 9897m | -3.5m/s | -37.5°C | -1.0% | -1.0hPa | 4.5V | 00:00:00 | 00:00:00 | 00:00:00 | |
| DB0UT-7 | 2026-09-04 10:58:56 | 47.29490 | 3.76912 | 75° | 75km/h | 9930m | -3.4m/s | 0°C | 0% | 0hPa | 4.5V | 00:00:00 | 00:00:00 | 00:00:00 | |
| DB0UT-7 | 2026-09-04 10:58:26 | 47.29329 | 3.76106 | 75° | 75km/h | 10016m | -3.3m/s | 0°C | 0% | 0hPa | 4.5V | 00:00:00 | 00:00:00 | 00:00:00 | |
| DB0UT-7 | 2026-09-04 10:57:56 | 47.29148 | 3.75305 | 71° | 77km/h | 10117m | -3.6m/s | 0°C | 0% | 0hPa | 4.5V | 00:00:00 | 00:00:00 | 00:00:00 | |
| DB0UT-7 | 2026-09-04 10:57:26 | 47.28942 | 3.74495 | 69° | 77km/h | 10215m | -3.3m/s | 0°C | 0% | 0hPa | 4.5V | 00:00:00 | 00:00:00 | 00:00:00 | |
| DB0UT-7 | 2026-09-04 10:56:56 | 47.28730 | 3.73693 | 67° | 77km/h | 10313m | -3.2m/s | 0°C | 0% | 0hPa | 4.5V | 00:00:00 | 00:00:00 | 00:00:00 | |
| DB0UT-7 | 2026-09-04 10:56:26 | 47.28508 | 3.72908 | 70° | 78km/h | 10410m | -3.2m/s | 0°C | 0% | 0hPa | 4.5V | 00:00:00 | 00:00:00 | 00:00:00 | |
| DB0UT-7 | 2026-09-04 10:55:56 | 47.28302 | 3.72083 | 69° | 80km/h | 10510m | -3.3m/s | 0°C | 0% | 0hPa | 4.5V | 00:00:00 | 00:00:00 | 00:00:00 | |
| DB0ND-19 | 2026-09-04 10:55:55 | 47.28287 | 3.72027 | 69° | 80km/h | 10513m | -3.4m/s | -42.1°C | -1.0% | -1.0hPa | 4.5V | 00:00:00 | 00:00:00 | 00:00:00 | |
| DB0UT-7 | 2026-09-04 10:55:26 | 47.28086 | 3.71237 | 69° | 80km/h | 10609m | -3.3m/s | 0°C | 0% | 0hPa | 4.5V | 00:00:00 | 00:00:00 | 00:00:00 | |
| DB0UT-7 | 2026-09-04 10:54:56 | 47.27878 | 3.70406 | 72° | 78km/h | 10706m | -3.4m/s | 0°C | 0% | 0hPa | 4.5V | 00:00:00 | 00:00:00 | 00:00:00 | |
| DB0UT-7 | 2026-09-04 10:54:27 | 47.27685 | 3.69582 | 73° | 77km/h | 10810m | -3.4m/s | 0°C | 0% | 0hPa | 4.5V | 00:00:00 | 00:00:00 | 00:00:00 | |
| DB0ND-19 | 2026-09-04 10:54:22 | 47.27630 | 3.69335 | 71° | 78km/h | 10841m | -3.6m/s | -44.8°C | -1.0% | -1.0hPa | 4.5V | 00:00:00 | 00:00:00 | 00:00:00 | |
| DB0UT-7 | 2026-09-04 10:53:56 | 47.27502 | 3.68761 | 73° | 78km/h | 10916m | -3.4m/s | 0°C | 0% | 0hPa | 4.5V | 00:00:00 | 00:00:00 | 00:00:00 | |
| DB0ND-19 | 2026-09-04 10:53:52 | 47.27459 | 3.68571 | 71° | 78km/h | 10941m | -3.7m/s | -45.6°C | -1.0% | -1.0hPa | 4.5V | 00:00:00 | 00:00:00 | 00:00:00 | |
| DB0UT-7 | 2026-09-04 10:53:26 | 47.27314 | 3.67935 | 73° | 80km/h | 11024m | -3.6m/s | 0°C | 0% | 0hPa | 4.5V | 00:00:00 | 00:00:00 | 00:00:00 | |
| DB0ND-19 | 2026-09-04 10:53:20 | 47.27270 | 3.67737 | 71° | 80km/h | 11048m | -3.5m/s | -46.5°C | -1.0% | -1.0hPa | 4.5V | 00:00:00 | 00:00:00 | 00:00:00 | |
| DB0UT-7 | 2026-09-04 10:52:56 | 47.27130 | 3.67080 | 72° | 84km/h | 11133m | -3.7m/s | 0°C | 0% | 0hPa | 4.5V | 00:00:00 | 00:00:00 | 00:00:00 | |
| DB0ND-19 | 2026-09-04 10:52:49 | 47.27076 | 3.66844 | 71° | 84km/h | 11162m | -3.8m/s | -47.3°C | -1.0% | -1.0hPa | 4.5V | 00:00:00 | 00:00:00 | 00:00:00 | |
| DB0UT-7 | 2026-09-04 10:52:26 | 47.26923 | 3.66186 | 72° | 82km/h | 11248m | -3.7m/s | 0°C | 0% | 0hPa | 4.5V | 00:00:00 | 00:00:00 | 00:00:00 | |
| DB0UT-7 | 2026-09-04 10:51:56 | 47.26730 | 3.65319 | 73° | 82km/h | 11361m | -3.8m/s | 0°C | 0% | 0hPa | 4.5V | 00:00:00 | 00:00:00 | 00:00:00 | |
| DB0ND-19 | 2026-09-04 10:51:47 | 47.26666 | 3.65030 | 71° | 80km/h | 11394m | -3.8m/s | -49.1°C | -1.0% | -1.0hPa | 4.5V | 00:00:00 | 00:00:00 | 00:00:00 | |
| DB0UT-7 | 2026-09-04 10:51:26 | 47.26536 | 3.64457 | 72° | 82km/h | 11475m | -3.8m/s | 0°C | 0% | 0hPa | 4.5V | 00:00:00 | 00:00:00 | 00:00:00 | |
| DB0ND-19 | 2026-09-04 10:51:16 | 47.26460 | 3.64116 | 72° | 78km/h | 11518m | -4.2m/s | -50.3°C | -1.0% | -1.0hPa | 4.5V | 00:00:00 | 00:00:00 | 00:00:00 | |
| DB0UT-7 | 2026-09-04 10:50:56 | 47.26341 | 3.63595 | 72° | 86km/h | 11594m | -4.1m/s | 0°C | 0% | 0hPa | 4.5V | 00:00:00 | 00:00:00 | 00:00:00 | |
| DB0ND-19 | 2026-09-04 10:50:46 | 47.26260 | 3.63235 | 71° | 86km/h | 11638m | -3.9m/s | -51.2°C | -1.0% | -1.0hPa | 4.5V | 00:00:00 | 00:00:00 | 00:00:00 | |
| DB0UT-7 | 2026-09-04 10:50:26 | 47.26127 | 3.62692 | 70° | 86km/h | 11714m | -4.0m/s | 0°C | 0% | 0hPa | 4.5V | 00:00:00 | 00:00:00 | 00:00:00 | |
| DB0ND-19 | 2026-09-04 10:50:14 | 47.26030 | 3.62302 | 69° | 84km/h | 11762m | -4.0m/s | -51.9°C | -1.0% | -1.0hPa | 4.5V | 00:00:00 | 00:00:00 | 00:00:00 | |
| DB0UT-7 | 2026-09-04 10:49:56 | 47.25897 | 3.61794 | 69° | 86km/h | 11834m | -3.9m/s | 0°C | 0% | 0hPa | 4.5V | 00:00:00 | 00:00:00 | 00:00:00 | |
| DB0UT-7 | 2026-09-04 10:49:26 | 47.25648 | 3.60913 | 68° | 88km/h | 11954m | -4.1m/s | 0°C | 0% | 0hPa | 4.5V | 00:00:00 | 00:00:00 | 00:00:00 | |
| DB0UT-7 | 2026-09-04 10:48:56 | 47.25393 | 3.60016 | 68° | 86km/h | 12072m | -4.1m/s | 0°C | 0% | 0hPa | 4.5V | 00:00:00 | 00:00:00 | 00:00:00 | |
| DB0UT-7 | 2026-09-04 10:48:26 | 47.25149 | 3.59137 | 68° | 82km/h | 12192m | -4.1m/s | 0°C | 0% | 0hPa | 4.5V | 00:00:00 | 00:00:00 | 00:00:00 | |
| DB0ND-19 | 2026-09-04 10:48:10 | 47.24984 | 3.58549 | 69° | 82km/h | 12271m | -4.2m/s | -56.2°C | -1.0% | -1.0hPa | 4.5V | 00:00:00 | 00:00:00 | 00:00:00 | |
| DB0UT-7 | 2026-09-04 10:47:56 | 47.24914 | 3.58285 | 70° | 84km/h | 12307m | -3.9m/s | 0°C | 0% | 0hPa | 4.5V | 00:00:00 | 00:00:00 | 00:00:00 | |
| DB0UT-7 | 2026-09-04 10:47:26 | 47.24682 | 3.57416 | 68° | 77km/h | 12428m | -4.0m/s | 0°C | 0% | 0hPa | 4.5V | 00:00:00 | 00:00:00 | 00:00:00 | |
| DB0ND-19 | 2026-09-04 10:47:08 | 47.24540 | 3.56910 | 67° | 75km/h | 12503m | -4.4m/s | -57.9°C | -1.0% | -1.0hPa | 4.5V | 00:00:00 | 00:00:00 | 00:00:00 | |
| DB0UT-7 | 2026-09-04 10:46:56 | 47.24460 | 3.56627 | 68° | 75km/h | 12546m | -4.0m/s | 0°C | 0% | 0hPa | 4.5V | 00:00:00 | 00:00:00 | 00:00:00 | |
| DB0UT-7 | 2026-09-04 10:46:26 | 47.24241 | 3.55860 | 69° | 78km/h | 12665m | -4.1m/s | 0°C | 0% | 0hPa | 4.5V | 00:00:00 | 00:00:00 | 00:00:00 | |
| DB0ND-19 | 2026-09-04 10:46:06 | 47.24080 | 3.55268 | 67° | 78km/h | 12753m | -3.8m/s | -59.8°C | -1.0% | -1.0hPa | 4.5V | 00:00:00 | 00:00:00 | 00:00:00 | |
| DB0UT-7 | 2026-09-04 10:45:58 | 47.24022 | 3.55048 | 70° | 78km/h | 12784m | -3.9m/s | 0°C | 0% | 0hPa | 4.5V | 00:00:00 | 00:00:00 | 00:00:00 | |
| DB0UT-7 | 2026-09-04 10:45:26 | 47.23821 | 3.54232 | 72° | 80km/h | 12906m | -3.8m/s | 0°C | 0% | 0hPa | 4.5V | 00:00:00 | 00:00:00 | 00:00:00 | |
| DB0ND-19 | 2026-09-04 10:45:04 | 47.23667 | 3.53589 | 69° | 78km/h | 12994m | -3.7m/s | -61.8°C | -1.0% | -1.0hPa | 4.5V | 00:00:00 | 00:00:00 | 00:00:00 | |
| DB0UT-7 | 2026-09-04 10:44:56 | 47.23619 | 3.53391 | 71° | 80km/h | 13026m | -3.8m/s | 0°C | 0% | 0hPa | 4.5V | 00:00:00 | 00:00:00 | 00:00:00 | |
| DB0UT-7 | 2026-09-04 10:44:26 | 47.23407 | 3.52562 | 70° | 78km/h | 13147m | -4.0m/s | 0°C | 0% | 0hPa | 4.5V | 00:00:00 | 00:00:00 | 00:00:00 | |
| DB0UT-7 | 2026-09-04 10:43:56 | 47.23202 | 3.51738 | 70° | 78km/h | 13270m | -4.1m/s | 0°C | 0% | 0hPa | 4.5V | 00:00:00 | 00:00:00 | 00:00:00 | |
| DB0UT-7 | 2026-09-04 10:43:26 | 47.23003 | 3.50912 | 73° | 78km/h | 13398m | -4.0m/s | 0°C | 0% | 0hPa | 4.5V | 00:00:00 | 00:00:00 | 00:00:00 | |
| DB0UT-7 | 2026-09-04 10:42:56 | 47.22817 | 3.50084 | 72° | 80km/h | 13527m | -4.3m/s | 0°C | 0% | 0hPa | 4.5V | 00:00:00 | 00:00:00 | 00:00:00 | |
| DB0UT-7 | 2026-09-04 10:42:26 | 47.22606 | 3.49237 | 71° | 82km/h | 13658m | -4.3m/s | 0°C | 0% | 0hPa | 4.5V | 00:00:00 | 00:00:00 | 00:00:00 | |
| DB0UT-7 | 2026-09-04 10:41:56 | 47.22434 | 3.48364 | 76° | 78km/h | 13793m | -4.3m/s | 0°C | 0% | 0hPa | 4.5V | 00:00:00 | 00:00:00 | 00:00:00 | |
| DB0UT-7 | 2026-09-04 10:41:26 | 47.22311 | 3.47506 | 81° | 73km/h | 13929m | -4.4m/s | 0°C | 0% | 0hPa | 4.5V | 00:00:00 | 00:00:00 | 00:00:00 | |
| DB0ND-19 | 2026-09-04 10:40:57 | 47.22245 | 3.46661 | 85° | 66km/h | 14073m | -4.6m/s | -65.7°C | -1.0% | -1.0hPa | 4.5V | 00:00:00 | 00:00:00 | 00:00:00 | |
| DB0UT-7 | 2026-09-04 10:40:26 | 47.22220 | 3.46008 | 86° | 66km/h | 14205m | -4.4m/s | 0°C | 0% | 0hPa | 4.5V | 00:00:00 | 00:00:00 | 00:00:00 | |
| DB0ND-19 | 2026-09-04 10:40:24 | 47.22215 | 3.45940 | 83° | 62km/h | 14219m | -4.5m/s | -66.7°C | -1.0% | -1.0hPa | 4.5V | 00:00:00 | 00:00:00 | 00:00:00 | |
| DB0UT-7 | 2026-09-04 10:39:56 | 47.22114 | 3.45296 | 71° | 78km/h | 14345m | -4.6m/s | 0°C | 0% | 0hPa | 4.5V | 00:00:00 | 00:00:00 | 00:00:00 | |
| DB0ND-19 | 2026-09-04 10:39:53 | 47.22090 | 3.45195 | 70° | 71km/h | 14364m | -4.8m/s | -66.5°C | -1.0% | -1.0hPa | 4.5V | 00:00:00 | 00:00:00 | 00:00:00 | |
| DB0UT-7 | 2026-09-04 10:39:26 | 47.21940 | 3.44449 | 80° | 84km/h | 14490m | -4.8m/s | 0°C | 0% | 0hPa | 4.5V | 00:00:00 | 00:00:00 | 00:00:00 | |
| DB0ND-19 | 2026-09-04 10:39:22 | 47.21921 | 3.44291 | 80° | 86km/h | 14515m | -4.9m/s | -65.7°C | -1.0% | -1.0hPa | 4.5V | 00:00:00 | 00:00:00 | 00:00:00 | |
| DB0UT-7 | 2026-09-04 10:38:26 | 47.21927 | 3.42708 | 98° | 66km/h | 14791m | -5.0m/s | 0°C | 0% | 0hPa | 4.5V | 00:00:00 | 00:00:00 | 00:00:00 | |
| DB0ND-19 | 2026-09-04 10:38:20 | 47.21954 | 3.42458 | 103° | 64km/h | 14836m | -5.0m/s | -64.4°C | -1.0% | -1.0hPa | 4.5V | 00:00:00 | 00:00:00 | 00:00:00 | |
| DB0UT-7 | 2026-09-04 10:37:56 | 47.21993 | 3.41984 | 91° | 62km/h | 14942m | -4.9m/s | 0°C | 0% | 0hPa | 4.5V | 00:00:00 | 00:00:00 | 00:00:00 | |
| DB0ND-19 | 2026-09-04 10:37:49 | 47.21994 | 3.41749 | 90° | 60km/h | 14988m | -5.1m/s | -63.1°C | -1.0% | -1.0hPa | 4.5V | 00:00:00 | 00:00:00 | 00:00:00 | |
| DB0UT-7 | 2026-09-04 10:37:26 | 47.21990 | 3.41290 | 89° | 64km/h | 15098m | -5.3m/s | 0°C | 0% | 0hPa | 4.5V | 00:00:00 | 00:00:00 | 00:00:00 | |
| DB0ND-19 | 2026-09-04 10:37:18 | 47.21974 | 3.40959 | 81° | 64km/h | 15166m | -5.5m/s | -62.9°C | -1.0% | -1.0hPa | 4.5V | 00:00:00 | 00:00:00 | 00:00:00 | |
| DB0UT-7 | 2026-09-04 10:36:56 | 47.21946 | 3.40586 | 86° | 47km/h | 15257m | -5.3m/s | 0°C | 0% | 0hPa | 4.5V | 00:00:00 | 00:00:00 | 00:00:00 | |
| DB0ND-19 | 2026-09-04 10:36:47 | 47.21949 | 3.40378 | 96° | 47km/h | 15305m | -5.5m/s | -62.1°C | -1.0% | -1.0hPa | 4.5V | 00:00:00 | 00:00:00 | 00:00:00 | |
| DB0UT-7 | 2026-09-04 10:36:26 | 47.21951 | 3.40055 | 88° | 38km/h | 15423m | -5.6m/s | 0°C | 0% | 0hPa | 4.5V | 00:00:00 | 00:00:00 | 00:00:00 | |
| DB0ND-19 | 2026-09-04 10:36:16 | 47.21932 | 3.39907 | 80° | 38km/h | 15479m | -5.7m/s | -62.0°C | -1.0% | -1.0hPa | 4.5V | 00:00:00 | 00:00:00 | 00:00:00 | |
| DB0ND-19 | 2026-09-04 10:35:45 | 47.21924 | 3.39477 | 85° | 37km/h | 15658m | -5.9m/s | -60.7°C | -1.0% | -1.0hPa | 4.5V | 00:00:00 | 00:00:00 | 00:00:00 | |
| DB0UT-7 | 2026-09-04 10:35:26 | 47.21897 | 3.39221 | 81° | 42km/h | 15771m | -5.8m/s | 0°C | 0% | 0hPa | 4.5V | 00:00:00 | 00:00:00 | 00:00:00 | |
| DB0ND-19 | 2026-09-04 10:35:14 | 47.21874 | 3.39021 | 81° | 42km/h | 15843m | -6.0m/s | -61.1°C | -1.0% | -1.0hPa | 4.5V | 00:00:00 | 00:00:00 | 00:00:00 | |
| DB0UT-7 | 2026-09-04 10:34:56 | 47.21844 | 3.38761 | 80° | 44km/h | 15950m | -5.9m/s | 0°C | 0% | 0hPa | 4.5V | 00:00:00 | 00:00:00 | 00:00:00 | |
| DB0UT-7 | 2026-09-04 10:34:26 | 47.21791 | 3.38280 | 85° | 46km/h | 16132m | -6.0m/s | 0°C | 0% | 0hPa | 4.5V | 00:00:00 | 00:00:00 | 00:00:00 | |
| DB0ND-19 | 2026-09-04 10:34:12 | 47.21778 | 3.38018 | 91° | 44km/h | 16219m | -6.0m/s | -61.9°C | -1.0% | -1.0hPa | 4.5V | 00:00:00 | 00:00:00 | 00:00:00 | |
| DB0UT-7 | 2026-09-04 10:33:56 | 47.21795 | 3.37770 | 96° | 40km/h | 16311m | -6.1m/s | 0°C | 0% | 0hPa | 4.5V | 00:00:00 | 00:00:00 | 00:00:00 | |
| DB0UT-7 | 2026-09-04 10:33:26 | 47.21793 | 3.37336 | 81° | 51km/h | 16498m | -6.2m/s | 0°C | 0% | 0hPa | 4.5V | 00:00:00 | 00:00:00 | 00:00:00 | |
| DB0ND-19 | 2026-09-04 10:33:10 | 47.21768 | 3.37045 | 87° | 51km/h | 16606m | -6.2m/s | -61.6°C | -1.0% | -1.0hPa | 4.5V | 00:00:00 | 00:00:00 | 00:00:00 | |
| DB0UT-7 | 2026-09-04 10:32:56 | 47.21753 | 3.36774 | 82° | 58km/h | 16688m | -6.2m/s | 0°C | 0% | 0hPa | 4.5V | 00:00:00 | 00:00:00 | 00:00:00 | |
| DB0UT-7 | 2026-09-04 10:32:26 | 47.21743 | 3.36132 | 97° | 49km/h | 16883m | -6.3m/s | 0°C | 0% | 0hPa | 4.5V | 00:00:00 | 00:00:00 | 00:00:00 | |
| DB0ND-19 | 2026-09-04 10:32:08 | 47.21772 | 3.35768 | 99° | 49km/h | 17015m | -6.5m/s | -60.7°C | -1.0% | -1.0hPa | 4.5V | 00:00:00 | 00:00:00 | 00:00:00 | |
| DB0UT-7 | 2026-09-04 10:31:56 | 47.21801 | 3.35588 | 106° | 49km/h | 17082m | -6.6m/s | 0°C | 0% | 0hPa | 4.5V | 00:00:00 | 00:00:00 | 00:00:00 | |
| DB0UT-7 | 2026-09-04 10:31:26 | 47.21914 | 3.35074 | 104° | 40km/h | 17293m | -6.7m/s | 0°C | 0% | 0hPa | 4.5V | 00:00:00 | 00:00:00 | 00:00:00 | |
| DB0ND-19 | 2026-09-04 10:31:06 | 47.21935 | 3.34743 | 94° | 35km/h | 17433m | -7.1m/s | -59.3°C | -1.0% | -1.0hPa | 4.5V | 00:00:00 | 00:00:00 | 00:00:00 | |
| DB0UT-7 | 2026-09-04 10:30:56 | 47.21939 | 3.34636 | 87° | 24km/h | 17504m | -7.0m/s | 0°C | 0% | 0hPa | 4.5V | 00:00:00 | 00:00:00 | 00:00:00 | |
| DB0UT-7 | 2026-09-04 10:30:26 | 47.21866 | 3.34395 | 58° | 33km/h | 17724m | -7.1m/s | 0°C | 0% | 0hPa | 4.5V | 00:00:00 | 00:00:00 | 00:00:00 | |
| DL1ZP-14 | 2026-09-04 10:30:22 | 47.21844 | 3.34348 | 56° | 33km/h | 17754m | -7.4m/s | -58.3°C | -1.0% | -1.0hPa | 4.5V | 00:00:00 | 00:00:00 | 00:00:00 | |
| DB0ND-19 | 2026-09-04 10:30:04 | 47.21776 | 3.34152 | 75° | 33km/h | 17891m | -7.6m/s | -59.3°C | -1.0% | -1.0hPa | 4.5V | 00:00:00 | 00:00:00 | 00:00:00 | |
| DB0UT-7 | 2026-09-04 10:29:56 | 47.21760 | 3.34067 | 73° | 44km/h | 17953m | -7.6m/s | 0°C | 0% | 0hPa | 4.5V | 00:00:00 | 00:00:00 | 00:00:00 | |
| DB0UT-7 | 2026-09-04 10:29:26 | 47.21696 | 3.33592 | 94° | 44km/h | 18187m | -8.0m/s | 0°C | 0% | 0hPa | 4.5V | 00:00:00 | 00:00:00 | 00:00:00 | |
| DB0ND-19 | 2026-09-04 10:29:02 | 47.21742 | 3.33184 | 96° | 31km/h | 18377m | -7.7m/s | -59.5°C | -1.0% | -1.0hPa | 4.5V | 00:00:00 | 00:00:00 | 00:00:00 | |
| DB0UT-7 | 2026-09-04 10:28:56 | 47.21750 | 3.33124 | 111° | 31km/h | 18425m | -7.8m/s | 0°C | 0% | 0hPa | 4.5V | 00:00:00 | 00:00:00 | 00:00:00 | |
| DB0UT-7 | 2026-09-04 10:28:26 | 47.21798 | 3.32783 | 116° | 38km/h | 18666m | -8.3m/s | 0°C | 0% | 0hPa | 4.5V | 00:00:00 | 00:00:00 | 00:00:00 | |
| DB0UT-7 | 2026-09-04 10:27:56 | 47.21934 | 3.32415 | 133° | 22km/h | 18913m | -8.2m/s | 0°C | 0% | 0hPa | 4.5V | 00:00:00 | 00:00:00 | 00:00:00 | |
| DB0UT-7 | 2026-09-04 10:27:26 | 47.22046 | 3.32259 | 129° | 11km/h | 19166m | -8.8m/s | 0°C | 0% | 0hPa | 4.5V | 00:00:00 | 00:00:00 | 00:00:00 | |
| DB0UT-7 | 2026-09-04 10:26:56 | 47.22059 | 3.32136 | 119° | 22km/h | 19416m | -9.2m/s | 0°C | 0% | 0hPa | 4.5V | 00:00:00 | 00:00:00 | 00:00:00 | |
| DB0UT-7 | 2026-09-04 10:26:26 | 47.22130 | 3.31932 | 85° | 11km/h | 19340m | 4.7m/s | 0°C | 0% | 0hPa | 4.5V | 00:00:00 | 00:00:00 | 00:00:00 | |
| DB0UT-7 | 2026-09-04 10:25:56 | 47.22121 | 3.31818 | 72° | 11km/h | 19205m | 4.7m/s | 0°C | 0% | 0hPa | 4.5V | 00:00:00 | 00:00:00 | 00:00:00 | |
| DB0ND-19 | 2026-09-04 10:25:55 | 47.22120 | 3.31814 | 116° | 2km/h | 19195m | 4.8m/s | -57.7°C | -1.0% | -1.0hPa | 4.5V | 00:00:00 | 00:00:00 | 00:00:00 | |
| DB0UT-7 | 2026-09-04 10:25:26 | 47.22171 | 3.31737 | 150° | 26km/h | 19064m | 3.4m/s | 0°C | 0% | 0hPa | 4.5V | 00:00:00 | 00:00:00 | 00:00:00 | |
| DB0ND-19 | 2026-09-04 10:25:24 | 47.22182 | 3.31724 | 129° | 16km/h | 19050m | 3.9m/s | -58.1°C | -1.0% | -1.0hPa | 4.5V | 00:00:00 | 00:00:00 | 00:00:00 | |
| DB0UT-7 | 2026-09-04 10:24:56 | 47.22320 | 3.31541 | 128° | 38km/h | 18923m | 3.7m/s | 0°C | 0% | 0hPa | 4.5V | 00:00:00 | 00:00:00 | 00:00:00 | |
| DB0ND-19 | 2026-09-04 10:24:53 | 47.22352 | 3.31493 | 132° | 35km/h | 18899m | 3.7m/s | -57.6°C | -1.0% | -1.0hPa | 4.5V | 00:00:00 | 00:00:00 | 00:00:00 | |
| DB0UT-7 | 2026-09-04 10:24:26 | 47.22479 | 3.31179 | 113° | 35km/h | 18775m | 3.8m/s | 0°C | 0% | 0hPa | 4.5V | 00:00:00 | 00:00:00 | 00:00:00 | |
| DB0ND-19 | 2026-09-04 10:24:22 | 47.22497 | 3.31113 | 104° | 38km/h | 18756m | 4.2m/s | -57.9°C | -1.0% | -1.0hPa | 4.5V | 00:00:00 | 00:00:00 | 00:00:00 | |
| DB0UT-7 | 2026-09-04 10:23:56 | 47.22562 | 3.30816 | 97° | 31km/h | 18634m | 5.0m/s | 0°C | 0% | 0hPa | 4.5V | 00:00:00 | 00:00:00 | 00:00:00 | |
| DB0ND-19 | 2026-09-04 10:23:51 | 47.22571 | 3.30745 | 89° | 26km/h | 18610m | 4.2m/s | -59.4°C | -1.0% | -1.0hPa | 4.5V | 00:00:00 | 00:00:00 | 00:00:00 | |
| DB0UT-7 | 2026-09-04 10:23:26 | 47.22587 | 3.30477 | 112° | 33km/h | 18489m | 5.1m/s | 0°C | 0% | 0hPa | 4.5V | 00:00:00 | 00:00:00 | 00:00:00 | |
| DB0ND-19 | 2026-09-04 10:23:20 | 47.22605 | 3.30403 | 110° | 31km/h | 18460m | 3.9m/s | -59.6°C | -1.0% | -1.0hPa | 4.5V | 00:00:00 | 00:00:00 | 00:00:00 | |
| DB0UT-7 | 2026-09-04 10:22:56 | 47.22637 | 3.30123 | 96° | 47km/h | 18345m | 4.4m/s | 0°C | 0% | 0hPa | 4.5V | 00:00:00 | 00:00:00 | 00:00:00 | |
| DB0ND-19 | 2026-09-04 10:22:49 | 47.22649 | 3.30006 | 99° | 44km/h | 18311m | 5.4m/s | -59.5°C | -1.0% | -1.0hPa | 4.5V | 00:00:00 | 00:00:00 | 00:00:00 | |
| DB0UT-7 | 2026-09-04 10:22:26 | 47.22689 | 3.29601 | 98° | 47km/h | 18204m | 4.1m/s | 0°C | 0% | 0hPa | 4.5V | 00:00:00 | 00:00:00 | 00:00:00 | |
| DB0ND-19 | 2026-09-04 10:22:18 | 47.22683 | 3.29416 | 92° | 44km/h | 18159m | 5.1m/s | -59.7°C | -1.0% | -1.0hPa | 4.5V | 00:00:00 | 00:00:00 | 00:00:00 | |
| DL1ZP-14 | 2026-09-04 10:22:05 | 47.22662 | 3.29197 | 79° | 42km/h | 18098m | 3.9m/s | -58.4°C | -1.0% | -1.0hPa | 4.5V | 00:00:00 | 00:00:00 | 00:00:00 | |
| DB0UT-7 | 2026-09-04 10:21:56 | 47.22640 | 3.29078 | 71° | 40km/h | 18059m | 4.6m/s | 0°C | 0% | 0hPa | 4.6V | 00:00:00 | 00:00:00 | 00:00:00 | |
| DB0ND-19 | 2026-09-04 10:21:47 | 47.22607 | 3.28924 | 68° | 49km/h | 18017m | 3.3m/s | -59.2°C | -1.0% | -1.0hPa | 4.6V | 00:00:00 | 00:00:00 | 00:00:00 | |
| DB0UT-7 | 2026-09-04 10:21:26 | 47.22551 | 3.28658 | 83° | 35km/h | 17925m | 3.2m/s | 0°C | 0% | 0hPa | 4.6V | 00:00:00 | 00:00:00 | 00:00:00 | |
| DB0ND-19 | 2026-09-04 10:21:16 | 47.22522 | 3.28520 | 73° | 40km/h | 17878m | 5.5m/s | -59.6°C | -1.0% | -1.0hPa | 4.6V | 00:00:00 | 00:00:00 | 00:00:00 | |
| DL1ZP-14 | 2026-09-04 10:21:03 | 47.22468 | 3.28371 | 57° | 29km/h | 17817m | 4.9m/s | -58.3°C | -1.0% | -1.0hPa | 4.6V | 00:00:00 | 00:00:00 | 00:00:00 | |
| DB0UT-7 | 2026-09-04 10:20:56 | 47.22438 | 3.28313 | 50° | 31km/h | 17787m | 3.5m/s | 0°C | 0% | 0hPa | 0V | 00:00:00 | 00:00:00 | 00:00:00 | |
| DB0ND-19 | 2026-09-04 10:20:45 | 47.22384 | 3.28191 | 55° | 31km/h | 17735m | 4.1m/s | -59.2°C | -1.0% | -1.0hPa | 0V | 00:00:00 | 00:00:00 | 00:00:00 | |
| DB0UT-7 | 2026-09-04 10:20:26 | 47.22301 | 3.28030 | 45° | 22km/h | 17655m | 4.7m/s | 0°C | 0% | 0hPa | 0V | 00:00:00 | 00:00:00 | 00:00:00 | |
| DB0ND-19 | 2026-09-04 10:20:14 | 47.22252 | 3.27942 | 74° | 16km/h | 17594m | 5.8m/s | -58.6°C | -1.0% | -1.0hPa | 0V | 00:00:00 | 00:00:00 | 00:00:00 | |
| DB0UT-7 | 2026-09-04 10:19:56 | 47.22212 | 3.27826 | 58° | 31km/h | 17516m | 5.7m/s | 0°C | 0% | 0hPa | 0V | 00:00:00 | 00:00:00 | 00:00:00 | |
| DB0UT-7 | 2026-09-04 10:19:26 | 47.22204 | 3.27481 | 97° | 42km/h | 17370m | 4.4m/s | 0°C | 0% | 0hPa | 0V | 00:00:00 | 00:00:00 | 00:00:00 | |
| DB0ND-19 | 2026-09-04 10:19:12 | 47.22200 | 3.27247 | 90° | 42km/h | 17301m | 3.6m/s | -59.5°C | -1.0% | -1.0hPa | 0V | 00:00:00 | 00:00:00 | 00:00:00 | |
| DB0UT-7 | 2026-09-04 10:18:56 | 47.22218 | 3.27012 | 100° | 47km/h | 17230m | 4.8m/s | 0°C | 0% | 0hPa | 0V | 00:00:00 | 00:00:00 | 00:00:00 | |
| DB0UT-7 | 2026-09-04 10:18:26 | 47.22314 | 3.26514 | 108° | 49km/h | 17086m | 5.3m/s | 0°C | 0% | 0hPa | 0V | 00:00:00 | 00:00:00 | 00:00:00 | |
| DB0ND-19 | 2026-09-04 10:18:10 | 47.22374 | 3.26202 | 103° | 46km/h | 17000m | 5.3m/s | -60.2°C | -1.0% | -1.0hPa | 0V | 00:00:00 | 00:00:00 | 00:00:00 | |
| DB0UT-7 | 2026-09-04 10:17:56 | 47.22403 | 3.25991 | 103° | 46km/h | 16941m | 4.8m/s | 0°C | 0% | 0hPa | 0V | 00:00:00 | 00:00:00 | 00:00:00 | |
| DB0UT-7 | 2026-09-04 10:17:26 | 47.22442 | 3.25482 | 94° | 53km/h | 16798m | 5.5m/s | 0°C | 0% | 0hPa | 0V | 00:00:00 | 00:00:00 | 00:00:00 | |
| DB0ND-19 | 2026-09-04 10:17:08 | 47.22448 | 3.25131 | 89° | 51km/h | 16714m | 4.5m/s | -60.6°C | -1.0% | -1.0hPa | 0V | 00:00:00 | 00:00:00 | 00:00:00 | |
| DB0UT-7 | 2026-09-04 10:16:56 | 47.22433 | 3.24898 | 83° | 49km/h | 16659m | 5.3m/s | 0°C | 0% | 0hPa | 0V | 00:00:00 | 00:00:00 | 00:00:00 | |
| DB0UT-7 | 2026-09-04 10:16:26 | 47.22390 | 3.24349 | 82° | 38km/h | 16522m | 5.1m/s | 0°C | 0% | 0hPa | 0V | 00:00:00 | 00:00:00 | 00:00:00 | |
| DB0ND-19 | 2026-09-04 10:16:06 | 47.22349 | 3.24043 | 91° | 31km/h | 16432m | 4.3m/s | -62.3°C | -1.0% | -1.0hPa | 0V | 00:00:00 | 00:00:00 | 00:00:00 | |
| DB0UT-7 | 2026-09-04 10:15:56 | 47.22349 | 3.23927 | 82° | 40km/h | 16391m | 4.1m/s | 0°C | 0% | 0hPa | 0V | 00:00:00 | 00:00:00 | 00:00:00 | |
| DB0UT-7 | 2026-09-04 10:15:26 | 47.22364 | 3.23487 | 96° | 46km/h | 16252m | 3.6m/s | 0°C | 0% | 0hPa | 0V | 00:00:00 | 00:00:00 | 00:00:00 | |
| DB0ND-19 | 2026-09-04 10:15:04 | 47.22351 | 3.23100 | 80° | 44km/h | 16153m | 3.5m/s | -62.3°C | -1.0% | -1.0hPa | 0V | 00:00:00 | 00:00:00 | 00:00:00 | |
| DB0UT-7 | 2026-09-04 10:14:56 | 47.22342 | 3.22980 | 85° | 46km/h | 16116m | 4.7m/s | 0°C | 0% | 0hPa | 0V | 00:00:00 | 00:00:00 | 00:00:00 | |
| DB0UT-7 | 2026-09-04 10:14:26 | 47.22281 | 3.22479 | 79° | 44km/h | 15983m | 5.1m/s | 0°C | 0% | 0hPa | 0V | 00:00:00 | 00:00:00 | 00:00:00 | |
| DB0ND-19 | 2026-09-04 10:14:02 | 47.22243 | 3.22080 | 80° | 46km/h | 15878m | 4.6m/s | -61.5°C | -1.0% | -1.0hPa | 0V | 00:00:00 | 00:00:00 | 00:00:00 | |
| DB0UT-7 | 2026-09-04 10:13:56 | 47.22235 | 3.21999 | 86° | 40km/h | 15852m | 4.7m/s | 0°C | 0% | 0hPa | 0V | 00:00:00 | 00:00:00 | 00:00:00 | |
| DB0UT-7 | 2026-09-04 10:13:26 | 47.22223 | 3.21554 | 102° | 38km/h | 15723m | 4.4m/s | 0°C | 0% | 0hPa | 0V | 00:00:00 | 00:00:00 | 00:00:00 | |
| DB0UT-7 | 2026-09-04 10:12:56 | 47.22238 | 3.21123 | 80° | 40km/h | 15588m | 3.7m/s | 0°C | 0% | 0hPa | 0V | 00:00:00 | 00:00:00 | 00:00:00 | |
| DB0UT-7 | 2026-09-04 10:12:26 | 47.22237 | 3.20671 | 98° | 57km/h | 15456m | 4.7m/s | 0°C | 0% | 0hPa | 0V | 00:00:00 | 00:00:00 | 00:00:00 | |
| DB0UT-7 | 2026-09-04 10:11:56 | 47.22251 | 3.20038 | 89° | 66km/h | 15320m | 5.6m/s | 0°C | 0% | 0hPa | 0V | 00:00:00 | 00:00:00 | 00:00:00 | |
| DB0UT-7 | 2026-09-04 10:11:26 | 47.22197 | 3.19306 | 88° | 62km/h | 15186m | 3.5m/s | 0°C | 0% | 0hPa | 0V | 00:00:00 | 00:00:00 | 00:00:00 | |
| DB0ND-19 | 2026-09-04 10:10:56 | 47.22179 | 3.18600 | 92° | 62km/h | 15047m | 2.9m/s | -63.7°C | -1.0% | -1.0hPa | 0V | 00:00:00 | 00:00:00 | 00:00:00 | |
| DB0UT-7 | 2026-09-04 10:10:26 | 47.22192 | 3.17875 | 97° | 73km/h | 14913m | 4.0m/s | 0°C | 0% | 0hPa | 0V | 00:00:00 | 00:00:00 | 00:00:00 | |
| DB0ND-19 | 2026-09-04 10:10:25 | 47.22199 | 3.17794 | 96° | 71km/h | 14904m | 3.1m/s | -64.2°C | -1.0% | -1.0hPa | 0V | 00:00:00 | 00:00:00 | 00:00:00 | |
| DB0UT-7 | 2026-09-04 10:09:56 | 47.22280 | 3.17082 | 100° | 75km/h | 14779m | 3.6m/s | 0°C | 0% | 0hPa | 0V | 00:00:00 | 00:00:00 | 00:00:00 | |
| DB0ND-19 | 2026-09-04 10:09:53 | 47.22288 | 3.17005 | 97° | 73km/h | 14769m | 4.3m/s | -64.1°C | -1.0% | -1.0hPa | 0V | 00:00:00 | 00:00:00 | 00:00:00 | |
| DB0UT-7 | 2026-09-04 10:09:26 | 47.22315 | 3.16252 | 90° | 78km/h | 14641m | 4.8m/s | 0°C | 0% | 0hPa | 0V | 00:00:00 | 00:00:00 | 00:00:00 | |
| DB0ND-19 | 2026-09-04 10:09:22 | 47.22319 | 3.16107 | 94° | 75km/h | 14622m | 4.9m/s | -64.4°C | -1.0% | -1.0hPa | 0V | 00:00:00 | 00:00:00 | 00:00:00 | |
| DB0UT-7 | 2026-09-04 10:08:56 | 47.22294 | 3.15385 | 79° | 80km/h | 14498m | 4.6m/s | 0°C | 0% | 0hPa | 0V | 00:00:00 | 00:00:00 | 00:00:00 | |
| DB0ND-19 | 2026-09-04 10:08:51 | 47.22273 | 3.15234 | 79° | 80km/h | 14477m | 3.8m/s | 0°C | -1.0% | -1.0hPa | 0V | 00:00:00 | 00:00:00 | 00:00:00 | |
| DB0UT-7 | 2026-09-04 10:08:26 | 47.22103 | 3.14532 | 68° | 69km/h | 14355m | 3.5m/s | 0°C | 0% | 0hPa | 0V | 00:00:00 | 00:00:00 | 00:00:00 | |
| DB0UT-7 | 2026-09-04 10:07:56 | 47.21903 | 3.13830 | 77° | 62km/h | 14219m | 5.1m/s | 0°C | 0% | 0hPa | 0V | 00:00:00 | 00:00:00 | 00:00:00 | |
| DB0UT-7 | 2026-09-04 10:07:26 | 47.21843 | 3.13144 | 87° | 66km/h | 14087m | 3.2m/s | 0°C | 0% | 0hPa | 0V | 00:00:00 | 00:00:00 | 00:00:00 | |
| DB0UT-7 | 2026-09-04 10:06:56 | 47.21791 | 3.12413 | 83° | 73km/h | 13959m | 4.8m/s | 0°C | 0% | 0hPa | 0V | 00:00:00 | 00:00:00 | 00:00:00 | |
| DB0UT-7 | 2026-09-04 10:06:26 | 47.21680 | 3.11616 | 78° | 73km/h | 13836m | 3.5m/s | 0°C | 0% | 0hPa | 0V | 00:00:00 | 00:00:00 | 00:00:00 | |
| DB0UT-7 | 2026-09-04 10:05:56 | 47.21517 | 3.10842 | 75° | 78km/h | 13706m | 4.9m/s | 0°C | 0% | 0hPa | 0V | 00:00:00 | 00:00:00 | 00:00:00 | |
| DB0UT-7 | 2026-09-04 10:05:26 | 47.21316 | 3.10021 | 68° | 75km/h | 13571m | 2.7m/s | 0°C | 0% | 0hPa | 0V | 00:00:00 | 00:00:00 | 00:00:00 | |
| DB0UT-7 | 2026-09-04 10:04:56 | 47.21130 | 3.09232 | 73° | 75km/h | 13445m | 4.0m/s | 0°C | 0% | 0hPa | 0V | 00:00:00 | 00:00:00 | 00:00:00 | |
| DB0UT-7 | 2026-09-04 10:04:26 | 47.20940 | 3.08454 | 67° | 75km/h | 13311m | 5.1m/s | 0°C | 0% | 0hPa | 0V | 00:00:00 | 00:00:00 | 00:00:00 | |
| DB0ND-19 | 2026-09-04 10:04:12 | 47.20835 | 3.08064 | 65° | 71km/h | 13243m | 3.7m/s | -63.6°C | -1.0% | -1.0hPa | 0V | 00:00:00 | 00:00:00 | 00:00:00 | |
| DB0UT-7 | 2026-09-04 10:03:56 | 47.20735 | 3.07681 | 68° | 75km/h | 13169m | 4.9m/s | 0°C | 0% | 0hPa | 0V | 00:00:00 | 00:00:00 | 00:00:00 | |
| DB0UT-7 | 2026-09-04 10:03:26 | 47.20534 | 3.06894 | 70° | 78km/h | 13035m | 5.0m/s | 0°C | 0% | 0hPa | 0V | 00:00:00 | 00:00:00 | 00:00:00 | |
| DB0ND-19 | 2026-09-04 10:03:10 | 47.20419 | 3.06437 | 66° | 77km/h | 12963m | 4.2m/s | -61.6°C | -1.0% | -1.0hPa | 0V | 00:00:00 | 00:00:00 | 00:00:00 | |
| DB0UT-7 | 2026-09-04 10:02:56 | 47.20332 | 3.06082 | 67° | 75km/h | 12904m | 4.0m/s | 0°C | 0% | 0hPa | 0V | 00:00:00 | 00:00:00 | 00:00:00 | |
| DB0ND-19 | 2026-09-04 10:02:39 | 47.20216 | 3.05616 | 71° | 75km/h | 12831m | 5.6m/s | -60.6°C | -1.0% | -1.0hPa | 0V | 00:00:00 | 00:00:00 | 00:00:00 | |
| DB0UT-7 | 2026-09-04 10:01:56 | 47.19936 | 3.04560 | 69° | 69km/h | 12638m | 5.2m/s | 0°C | 0% | 0hPa | 0V | 00:00:00 | 00:00:00 | 00:00:00 | |
| DB0UT-7 | 2026-09-04 10:01:26 | 47.19736 | 3.03849 | 65° | 73km/h | 12503m | 4.8m/s | 0°C | 0% | 0hPa | 0V | 00:00:00 | 00:00:00 | 00:00:00 | |
| DB0ND-19 | 2026-09-04 10:01:06 | 47.19591 | 3.03325 | 69° | 77km/h | 12413m | 5.6m/s | -57.4°C | -1.0% | -1.0hPa | 0V | 00:00:00 | 00:00:00 | 00:00:00 | |
| DB0UT-7 | 2026-09-04 10:00:25 | 47.19300 | 3.02241 | 68° | 80km/h | 12234m | 3.4m/s | 0°C | 0% | 0hPa | 0V | 00:00:00 | 00:00:00 | 00:00:00 | |
| DB0ND-19 | 2026-09-04 10:00:04 | 47.19131 | 3.01627 | 64° | 80km/h | 12142m | 4.1m/s | -55.1°C | -1.0% | -1.0hPa | 0V | 00:00:00 | 00:00:00 | 00:00:00 | |
| DB0UT-7 | 2026-09-04 09:59:55 | 47.19066 | 3.01408 | 65° | 82km/h | 12102m | 3.9m/s | 0°C | 0% | 0hPa | 0V | 00:00:00 | 00:00:00 | 00:00:00 | |
| DB0UT-7 | 2026-09-04 09:59:25 | 47.18826 | 3.00575 | 71° | 80km/h | 11973m | 5.4m/s | 0°C | 0% | 0hPa | 0V | 00:00:00 | 00:00:00 | 00:00:00 | |
| DB0UT-7 | 2026-09-04 09:58:55 | 47.18604 | 2.99745 | 68° | 80km/h | 11843m | 4.3m/s | 0°C | 0% | 0hPa | 0V | 00:00:00 | 00:00:00 | 00:00:00 | |
| DB0UT-7 | 2026-09-04 09:58:25 | 47.18389 | 2.98898 | 69° | 78km/h | 11709m | 3.0m/s | 0°C | 0% | 0hPa | 0V | 00:00:00 | 00:00:00 | 00:00:00 | |
| DB0UT-7 | 2026-09-04 09:57:55 | 47.18193 | 2.98066 | 71° | 77km/h | 11581m | 5.1m/s | 0°C | 0% | 0hPa | 0V | 00:00:00 | 00:00:00 | 00:00:00 | |
| DB0UT-7 | 2026-09-04 09:57:25 | 47.18013 | 2.97258 | 73° | 78km/h | 11454m | 4.8m/s | 0°C | 0% | 0hPa | 0V | 00:00:00 | 00:00:00 | 00:00:00 | |
| DB0UT-7 | 2026-09-04 09:56:55 | 47.17818 | 2.96430 | 72° | 78km/h | 11329m | 4.5m/s | 0°C | 0% | 0hPa | 0V | 00:00:00 | 00:00:00 | 00:00:00 | |
| DB0UT-7 | 2026-09-04 09:56:25 | 47.17639 | 2.95602 | 73° | 78km/h | 11208m | 3.4m/s | 0°C | 0% | 0hPa | 0V | 00:00:00 | 00:00:00 | 00:00:00 | |
| DB0UT-7 | 2026-09-04 09:55:55 | 47.17449 | 2.94770 | 69° | 77km/h | 11085m | 3.7m/s | 0°C | 0% | 0hPa | 0V | 00:00:00 | 00:00:00 | 00:00:00 | |
| DB0UT-7 | 2026-09-04 09:55:25 | 47.17259 | 2.93965 | 69° | 77km/h | 10962m | 4.2m/s | 0°C | 0% | 0hPa | 0V | 00:00:00 | 00:00:00 | 00:00:00 | |
| DB0UT-7 | 2026-09-04 09:54:55 | 47.17064 | 2.93164 | 72° | 78km/h | 10834m | 3.1m/s | 0°C | 0% | 0hPa | 0V | 00:00:00 | 00:00:00 | 00:00:00 | |
| DB0UT-7 | 2026-09-04 09:54:25 | 47.16862 | 2.92332 | 71° | 78km/h | 10707m | 5.0m/s | 0°C | 0% | 0hPa | 0V | 00:00:00 | 00:00:00 | 00:00:00 | |
| DB0UT-7 | 2026-09-04 09:53:55 | 47.16654 | 2.91512 | 71° | 75km/h | 10578m | 3.2m/s | 0°C | 0% | 0hPa | 0V | 00:00:00 | 00:00:00 | 00:00:00 | |
| DB0UT-7 | 2026-09-04 09:53:25 | 47.16438 | 2.90741 | 64° | 71km/h | 10453m | 3.5m/s | 0°C | 0% | 0hPa | 0V | 00:00:00 | 00:00:00 | 00:00:00 | |
| DB0UT-7 | 2026-09-04 09:52:55 | 47.16218 | 2.90027 | 67° | 71km/h | 10327m | 4.3m/s | 0°C | 0% | 0hPa | 0V | 00:00:00 | 00:00:00 | 00:00:00 | |
| DB0UT-7 | 2026-09-04 09:52:25 | 47.16006 | 2.89299 | 65° | 73km/h | 10199m | 3.5m/s | 0°C | 0% | 0hPa | 0V | 00:00:00 | 00:00:00 | 00:00:00 | |
| DB0UT-7 | 2026-09-04 09:51:55 | 47.15801 | 2.88539 | 69° | 71km/h | 10071m | 5.3m/s | 0°C | 0% | 0hPa | 0V | 00:00:00 | 00:00:00 | 00:00:00 | |
| DB0UT-7 | 2026-09-04 09:51:25 | 47.15616 | 2.87790 | 73° | 75km/h | 9941m | 4.4m/s | 0°C | 0% | 0hPa | 0V | 00:00:00 | 00:00:00 | 00:00:00 | |
| DB0UT-7 | 2026-09-04 09:50:55 | 47.15434 | 2.87013 | 69° | 75km/h | 9815m | 5.3m/s | 0°C | 0% | 0hPa | 0V | 00:00:00 | 00:00:00 | 00:00:00 | |
| DB0UT-7 | 2026-09-04 09:50:25 | 47.15235 | 2.86240 | 72° | 69km/h | 9685m | 5.3m/s | 0°C | 0% | 0hPa | 0V | 00:00:00 | 00:00:00 | 00:00:00 | |
| DB0UT-7 | 2026-09-04 09:49:55 | 47.15075 | 2.85502 | 72° | 73km/h | 9555m | 4.8m/s | 0°C | 0% | 0hPa | 0V | 00:00:00 | 00:00:00 | 00:00:00 | |
| DB0UT-7 | 2026-09-04 09:49:25 | 47.14925 | 2.84727 | 74° | 73km/h | 9429m | 2.8m/s | 0°C | 0% | 0hPa | 0V | 00:00:00 | 00:00:00 | 00:00:00 | |
| DB0UT-7 | 2026-09-04 09:48:55 | 47.14777 | 2.83944 | 75° | 75km/h | 9295m | 5.2m/s | 0°C | 0% | 0hPa | 0V | 00:00:00 | 00:00:00 | 00:00:00 | |
| DB0UT-7 | 2026-09-04 09:48:25 | 47.14637 | 2.83130 | 76° | 77km/h | 9167m | 5.3m/s | 0°C | 0% | 0hPa | 0V | 00:00:00 | 00:00:00 | 00:00:00 | |
| DB0UT-7 | 2026-09-04 09:47:55 | 47.14502 | 2.82310 | 77° | 73km/h | 9038m | 3.6m/s | 0°C | 0% | 0hPa | 0V | 00:00:00 | 00:00:00 | 00:00:00 | |
| DB0UT-7 | 2026-09-04 09:47:25 | 47.14368 | 2.81528 | 75° | 73km/h | 8914m | 3.4m/s | 0°C | 0% | 0hPa | 0V | 00:00:00 | 00:00:00 | 00:00:00 | |
| DB0UT-7 | 2026-09-04 09:46:53 | 47.14211 | 2.80708 | 78° | 69km/h | 8785m | 3.7m/s | 0°C | 0% | 0hPa | 0V | 00:00:00 | 00:00:00 | 00:00:00 | |
| DB0UT-7 | 2026-09-04 09:46:23 | 47.14090 | 2.79952 | 76° | 73km/h | 8657m | 3.8m/s | 0°C | 0% | 0hPa | 0V | 00:00:00 | 00:00:00 | 00:00:00 | |
| DB0UT-7 | 2026-09-04 09:45:51 | 47.13950 | 2.79116 | 77° | 75km/h | 8537m | 3.5m/s | 0°C | 0% | 0hPa | 0V | 00:00:00 | 00:00:00 | 00:00:00 |